sensor_id;sensor_type;location;lat;lon;timestamp;P1;durP1;ratioP1;P2;durP2;ratioP2
52031;SDS011;38044;45.148;39.604;2023-02-01T00:02:01;8.93;;;5.88;;
52031;SDS011;38044;45.148;39.604;2023-02-01T00:04:27;8.38;;;5.57;;
52031;SDS011;38044;45.148;39.604;2023-02-01T00:06:53;9.85;;;5.78;;
52031;SDS011;38044;45.148;39.604;2023-02-01T00:09:19;8.77;;;5.50;;
52031;SDS011;38044;45.148;39.604;2023-02-01T00:11:45;9.70;;;6.03;;
52031;SDS011;38044;45.148;39.604;2023-02-01T00:14:11;9.95;;;6.28;;
52031;SDS011;38044;45.148;39.604;2023-02-01T00:16:38;11.13;;;5.95;;
52031;SDS011;38044;45.148;39.604;2023-02-01T00:19:05;10.35;;;5.90;;
52031;SDS011;38044;45.148;39.604;2023-02-01T00:21:35;8.20;;;5.55;;
52031;SDS011;38044;45.148;39.604;2023-02-01T00:24:01;9.90;;;5.63;;
52031;SDS011;38044;45.148;39.604;2023-02-01T00:29:14;10.63;;;5.85;;
52031;SDS011;38044;45.148;39.604;2023-02-01T00:31:41;11.18;;;6.50;;
52031;SDS011;38044;45.148;39.604;2023-02-01T00:34:09;9.55;;;6.25;;
52031;SDS011;38044;45.148;39.604;2023-02-01T00:36:40;10.07;;;6.35;;
52031;SDS011;38044;45.148;39.604;2023-02-01T00:39:08;11.75;;;6.43;;
52031;SDS011;38044;45.148;39.604;2023-02-01T00:41:34;9.20;;;5.88;;
52031;SDS011;38044;45.148;39.604;2023-02-01T00:44:00;8.88;;;6.25;;
52031;SDS011;38044;45.148;39.604;2023-02-01T00:46:26;9.45;;;6.32;;
52031;SDS011;38044;45.148;39.604;2023-02-01T00:48:53;8.93;;;6.30;;
52031;SDS011;38044;45.148;39.604;2023-02-01T00:51:21;9.43;;;6.13;;
52031;SDS011;38044;45.148;39.604;2023-02-01T00:53:49;11.82;;;6.30;;
52031;SDS011;38044;45.148;39.604;2023-02-01T00:56:15;9.30;;;5.82;;
52031;SDS011;38044;45.148;39.604;2023-02-01T00:58:41;11.50;;;6.47;;
52031;SDS011;38044;45.148;39.604;2023-02-01T01:01:08;12.20;;;6.97;;
52031;SDS011;38044;45.148;39.604;2023-02-01T01:03:38;11.45;;;6.40;;
52031;SDS011;38044;45.148;39.604;2023-02-01T01:06:07;10.50;;;7.10;;
52031;SDS011;38044;45.148;39.604;2023-02-01T01:08:35;11.27;;;6.38;;
52031;SDS011;38044;45.148;39.604;2023-02-01T01:11:05;11.57;;;6.75;;
52031;SDS011;38044;45.148;39.604;2023-02-01T01:13:33;10.18;;;6.57;;
52031;SDS011;38044;45.148;39.604;2023-02-01T01:16:03;10.13;;;6.20;;
52031;SDS011;38044;45.148;39.604;2023-02-01T01:18:30;9.20;;;6.32;;
52031;SDS011;38044;45.148;39.604;2023-02-01T01:20:57;9.45;;;6.03;;
52031;SDS011;38044;45.148;39.604;2023-02-01T01:23:23;10.98;;;6.60;;
52031;SDS011;38044;45.148;39.604;2023-02-01T01:25:49;9.80;;;6.45;;
52031;SDS011;38044;45.148;39.604;2023-02-01T01:28:15;9.32;;;6.57;;
52031;SDS011;38044;45.148;39.604;2023-02-01T01:30:41;11.02;;;6.85;;
52031;SDS011;38044;45.148;39.604;2023-02-01T01:33:06;11.02;;;6.78;;
52031;SDS011;38044;45.148;39.604;2023-02-01T01:35:32;11.23;;;6.85;;
52031;SDS011;38044;45.148;39.604;2023-02-01T01:37:59;9.93;;;6.55;;
52031;SDS011;38044;45.148;39.604;2023-02-01T01:40:26;11.80;;;7.03;;
52031;SDS011;38044;45.148;39.604;2023-02-01T01:42:52;12.15;;;7.00;;
52031;SDS011;38044;45.148;39.604;2023-02-01T01:47:59;9.98;;;6.78;;
52031;SDS011;38044;45.148;39.604;2023-02-01T01:50:33;12.32;;;7.22;;
52031;SDS011;38044;45.148;39.604;2023-02-01T01:53:05;10.13;;;6.32;;
52031;SDS011;38044;45.148;39.604;2023-02-01T01:55:35;10.98;;;6.93;;
52031;SDS011;38044;45.148;39.604;2023-02-01T01:58:12;10.38;;;7.22;;
52031;SDS011;38044;45.148;39.604;2023-02-01T02:00:43;10.30;;;6.78;;
52031;SDS011;38044;45.148;39.604;2023-02-01T02:03:15;10.13;;;7.07;;
52031;SDS011;38044;45.148;39.604;2023-02-01T02:05:45;10.30;;;6.95;;
52031;SDS011;38044;45.148;39.604;2023-02-01T02:08:14;11.73;;;8.07;;
52031;SDS011;38044;45.148;39.604;2023-02-01T02:10:40;11.15;;;7.03;;
52031;SDS011;38044;45.148;39.604;2023-02-01T02:13:25;11.02;;;6.65;;
52031;SDS011;38044;45.148;39.604;2023-02-01T02:16:18;11.52;;;6.78;;
52031;SDS011;38044;45.148;39.604;2023-02-01T02:27:21;13.10;;;7.47;;
52031;SDS011;38044;45.148;39.604;2023-02-01T02:30:08;10.77;;;6.60;;
52031;SDS011;38044;45.148;39.604;2023-02-01T02:39:01;10.57;;;6.63;;
52031;SDS011;38044;45.148;39.604;2023-02-01T02:41:37;11.07;;;6.70;;
52031;SDS011;38044;45.148;39.604;2023-02-01T02:44:47;11.30;;;6.60;;
52031;SDS011;38044;45.148;39.604;2023-02-01T02:50:58;10.35;;;6.30;;
52031;SDS011;38044;45.148;39.604;2023-02-01T02:56:51;8.77;;;5.85;;
52031;SDS011;38044;45.148;39.604;2023-02-01T02:59:36;9.13;;;6.10;;
52031;SDS011;38044;45.148;39.604;2023-02-01T03:02:24;10.48;;;5.93;;
52031;SDS011;38044;45.148;39.604;2023-02-01T03:05:11;9.10;;;6.13;;
52031;SDS011;38044;45.148;39.604;2023-02-01T03:13:11;11.27;;;6.70;;
52031;SDS011;38044;45.148;39.604;2023-02-01T03:15:46;10.10;;;6.53;;
52031;SDS011;38044;45.148;39.604;2023-02-01T03:18:17;12.05;;;7.50;;
52031;SDS011;38044;45.148;39.604;2023-02-01T03:20:50;12.73;;;7.72;;
52031;SDS011;38044;45.148;39.604;2023-02-01T03:23:19;12.85;;;7.50;;
52031;SDS011;38044;45.148;39.604;2023-02-01T03:25:50;11.93;;;7.20;;
52031;SDS011;38044;45.148;39.604;2023-02-01T03:28:18;12.85;;;8.10;;
52031;SDS011;38044;45.148;39.604;2023-02-01T03:30:48;14.65;;;8.90;;
52031;SDS011;38044;45.148;39.604;2023-02-01T03:33:16;15.38;;;8.23;;
52031;SDS011;38044;45.148;39.604;2023-02-01T03:38:35;18.58;;;10.23;;
52031;SDS011;38044;45.148;39.604;2023-02-01T03:41:08;17.25;;;9.82;;
52031;SDS011;38044;45.148;39.604;2023-02-01T03:46:42;18.25;;;10.75;;
52031;SDS011;38044;45.148;39.604;2023-02-01T03:49:11;18.48;;;10.25;;
52031;SDS011;38044;45.148;39.604;2023-02-01T03:54:11;19.00;;;10.60;;
52031;SDS011;38044;45.148;39.604;2023-02-01T03:56:39;19.20;;;10.93;;
52031;SDS011;38044;45.148;39.604;2023-02-01T03:59:10;22.70;;;10.77;;
52031;SDS011;38044;45.148;39.604;2023-02-01T04:01:36;22.02;;;11.55;;
52031;SDS011;38044;45.148;39.604;2023-02-01T04:04:02;20.48;;;11.27;;
52031;SDS011;38044;45.148;39.604;2023-02-01T04:06:28;18.05;;;10.55;;
52031;SDS011;38044;45.148;39.604;2023-02-01T04:08:54;19.90;;;10.57;;
52031;SDS011;38044;45.148;39.604;2023-02-01T04:11:20;18.83;;;10.63;;
52031;SDS011;38044;45.148;39.604;2023-02-01T04:13:46;18.85;;;10.27;;
52031;SDS011;38044;45.148;39.604;2023-02-01T04:16:12;20.10;;;11.27;;
52031;SDS011;38044;45.148;39.604;2023-02-01T04:18:38;20.50;;;11.20;;
52031;SDS011;38044;45.148;39.604;2023-02-01T04:21:03;19.45;;;11.23;;
52031;SDS011;38044;45.148;39.604;2023-02-01T04:23:29;20.60;;;11.85;;
52031;SDS011;38044;45.148;39.604;2023-02-01T04:26:00;21.30;;;11.45;;
52031;SDS011;38044;45.148;39.604;2023-02-01T04:28:27;19.88;;;10.50;;
52031;SDS011;38044;45.148;39.604;2023-02-01T04:30:54;17.58;;;10.15;;
52031;SDS011;38044;45.148;39.604;2023-02-01T04:33:20;19.23;;;11.55;;
52031;SDS011;38044;45.148;39.604;2023-02-01T04:35:45;19.42;;;10.07;;
52031;SDS011;38044;45.148;39.604;2023-02-01T04:38:12;17.67;;;10.23;;
52031;SDS011;38044;45.148;39.604;2023-02-01T04:40:38;17.63;;;10.48;;
52031;SDS011;38044;45.148;39.604;2023-02-01T04:43:04;19.83;;;10.48;;
52031;SDS011;38044;45.148;39.604;2023-02-01T04:45:30;20.77;;;11.25;;
52031;SDS011;38044;45.148;39.604;2023-02-01T04:47:56;20.35;;;10.80;;
52031;SDS011;38044;45.148;39.604;2023-02-01T04:50:22;21.08;;;10.35;;
52031;SDS011;38044;45.148;39.604;2023-02-01T04:52:49;19.67;;;10.55;;
52031;SDS011;38044;45.148;39.604;2023-02-01T04:55:15;20.65;;;10.68;;
52031;SDS011;38044;45.148;39.604;2023-02-01T04:57:41;20.63;;;11.18;;
52031;SDS011;38044;45.148;39.604;2023-02-01T05:00:07;26.17;;;12.48;;
52031;SDS011;38044;45.148;39.604;2023-02-01T05:02:35;25.38;;;13.73;;
52031;SDS011;38044;45.148;39.604;2023-02-01T05:05:01;25.40;;;13.43;;
52031;SDS011;38044;45.148;39.604;2023-02-01T05:07:27;24.60;;;13.80;;
52031;SDS011;38044;45.148;39.604;2023-02-01T05:09:53;26.52;;;13.20;;
52031;SDS011;38044;45.148;39.604;2023-02-01T05:12:19;28.35;;;13.43;;
52031;SDS011;38044;45.148;39.604;2023-02-01T05:15:04;23.55;;;12.15;;
52031;SDS011;38044;45.148;39.604;2023-02-01T05:17:30;24.83;;;12.55;;
52031;SDS011;38044;45.148;39.604;2023-02-01T05:19:56;23.77;;;11.55;;
52031;SDS011;38044;45.148;39.604;2023-02-01T05:22:22;23.00;;;11.55;;
52031;SDS011;38044;45.148;39.604;2023-02-01T05:24:48;26.60;;;12.00;;
52031;SDS011;38044;45.148;39.604;2023-02-01T05:27:13;23.88;;;12.40;;
52031;SDS011;38044;45.148;39.604;2023-02-01T05:29:39;20.00;;;11.32;;
52031;SDS011;38044;45.148;39.604;2023-02-01T05:32:05;22.60;;;10.95;;
52031;SDS011;38044;45.148;39.604;2023-02-01T05:34:31;18.90;;;9.82;;
52031;SDS011;38044;45.148;39.604;2023-02-01T05:36:57;18.65;;;10.50;;
52031;SDS011;38044;45.148;39.604;2023-02-01T05:39:22;21.17;;;11.13;;
52031;SDS011;38044;45.148;39.604;2023-02-01T05:41:48;24.00;;;11.23;;
52031;SDS011;38044;45.148;39.604;2023-02-01T05:44:14;20.02;;;11.43;;
52031;SDS011;38044;45.148;39.604;2023-02-01T05:46:40;23.75;;;12.68;;
52031;SDS011;38044;45.148;39.604;2023-02-01T05:49:06;24.48;;;12.50;;
52031;SDS011;38044;45.148;39.604;2023-02-01T05:51:32;22.70;;;12.18;;
52031;SDS011;38044;45.148;39.604;2023-02-01T05:53:59;20.92;;;10.95;;
52031;SDS011;38044;45.148;39.604;2023-02-01T05:56:24;18.45;;;9.82;;
52031;SDS011;38044;45.148;39.604;2023-02-01T05:58:50;19.00;;;10.30;;
52031;SDS011;38044;45.148;39.604;2023-02-01T06:01:17;19.75;;;10.82;;
52031;SDS011;38044;45.148;39.604;2023-02-01T06:03:42;18.85;;;10.30;;
52031;SDS011;38044;45.148;39.604;2023-02-01T06:06:08;21.67;;;11.13;;
52031;SDS011;38044;45.148;39.604;2023-02-01T06:08:34;18.63;;;10.18;;
52031;SDS011;38044;45.148;39.604;2023-02-01T06:11:00;19.55;;;10.23;;
52031;SDS011;38044;45.148;39.604;2023-02-01T06:13:27;19.63;;;10.70;;
52031;SDS011;38044;45.148;39.604;2023-02-01T06:15:53;19.55;;;10.75;;
52031;SDS011;38044;45.148;39.604;2023-02-01T06:18:20;20.52;;;10.77;;
52031;SDS011;38044;45.148;39.604;2023-02-01T06:20:51;19.73;;;10.55;;
52031;SDS011;38044;45.148;39.604;2023-02-01T06:23:20;19.27;;;10.00;;
52031;SDS011;38044;45.148;39.604;2023-02-01T06:25:52;18.15;;;10.32;;
52031;SDS011;38044;45.148;39.604;2023-02-01T06:28:23;19.02;;;10.93;;
52031;SDS011;38044;45.148;39.604;2023-02-01T06:30:49;17.98;;;9.93;;
52031;SDS011;38044;45.148;39.604;2023-02-01T06:33:15;20.13;;;10.77;;
52031;SDS011;38044;45.148;39.604;2023-02-01T06:35:41;18.55;;;10.02;;
52031;SDS011;38044;45.148;39.604;2023-02-01T06:38:10;16.30;;;9.23;;
52031;SDS011;38044;45.148;39.604;2023-02-01T06:40:37;15.77;;;8.93;;
52031;SDS011;38044;45.148;39.604;2023-02-01T06:43:03;16.88;;;9.00;;
52031;SDS011;38044;45.148;39.604;2023-02-01T06:45:29;17.20;;;9.68;;
52031;SDS011;38044;45.148;39.604;2023-02-01T06:47:55;16.50;;;9.07;;
52031;SDS011;38044;45.148;39.604;2023-02-01T06:50:21;16.20;;;9.30;;
52031;SDS011;38044;45.148;39.604;2023-02-01T06:52:47;15.23;;;8.38;;
52031;SDS011;38044;45.148;39.604;2023-02-01T06:55:13;14.65;;;9.23;;
52031;SDS011;38044;45.148;39.604;2023-02-01T06:57:39;13.95;;;9.10;;
52031;SDS011;38044;45.148;39.604;2023-02-01T07:00:05;16.58;;;9.40;;
52031;SDS011;38044;45.148;39.604;2023-02-01T07:02:31;13.68;;;8.40;;
52031;SDS011;38044;45.148;39.604;2023-02-01T07:04:57;14.82;;;8.43;;
52031;SDS011;38044;45.148;39.604;2023-02-01T07:07:23;17.25;;;8.93;;
52031;SDS011;38044;45.148;39.604;2023-02-01T07:09:49;15.98;;;8.88;;
52031;SDS011;38044;45.148;39.604;2023-02-01T07:12:15;14.18;;;8.85;;
52031;SDS011;38044;45.148;39.604;2023-02-01T07:14:41;12.00;;;7.72;;
52031;SDS011;38044;45.148;39.604;2023-02-01T07:17:06;12.63;;;7.13;;
52031;SDS011;38044;45.148;39.604;2023-02-01T07:19:32;13.60;;;8.50;;
52031;SDS011;38044;45.148;39.604;2023-02-01T07:21:58;11.05;;;6.78;;
52031;SDS011;38044;45.148;39.604;2023-02-01T07:24:24;13.02;;;7.63;;
52031;SDS011;38044;45.148;39.604;2023-02-01T07:26:50;11.10;;;6.93;;
52031;SDS011;38044;45.148;39.604;2023-02-01T07:29:16;11.48;;;7.40;;
52031;SDS011;38044;45.148;39.604;2023-02-01T07:31:43;10.50;;;7.13;;
52031;SDS011;38044;45.148;39.604;2023-02-01T07:34:09;12.60;;;7.20;;
52031;SDS011;38044;45.148;39.604;2023-02-01T07:36:35;10.75;;;7.20;;
52031;SDS011;38044;45.148;39.604;2023-02-01T07:39:02;11.10;;;7.28;;
52031;SDS011;38044;45.148;39.604;2023-02-01T07:41:30;15.88;;;7.88;;
52031;SDS011;38044;45.148;39.604;2023-02-01T07:43:56;12.07;;;8.52;;
52031;SDS011;38044;45.148;39.604;2023-02-01T07:46:22;12.38;;;8.25;;
52031;SDS011;38044;45.148;39.604;2023-02-01T07:48:48;11.75;;;7.30;;
52031;SDS011;38044;45.148;39.604;2023-02-01T07:51:15;11.45;;;6.90;;
52031;SDS011;38044;45.148;39.604;2023-02-01T07:53:42;12.52;;;7.40;;
52031;SDS011;38044;45.148;39.604;2023-02-01T07:56:12;10.35;;;6.72;;
52031;SDS011;38044;45.148;39.604;2023-02-01T07:58:40;10.30;;;6.38;;
52031;SDS011;38044;45.148;39.604;2023-02-01T08:01:05;9.85;;;5.97;;
52031;SDS011;38044;45.148;39.604;2023-02-01T08:03:49;8.68;;;6.00;;
52031;SDS011;38044;45.148;39.604;2023-02-01T08:06:16;9.60;;;5.78;;
52031;SDS011;38044;45.148;39.604;2023-02-01T08:08:44;8.85;;;6.10;;
52031;SDS011;38044;45.148;39.604;2023-02-01T08:11:12;8.13;;;5.30;;
52031;SDS011;38044;45.148;39.604;2023-02-01T08:13:39;8.77;;;6.10;;
52031;SDS011;38044;45.148;39.604;2023-02-01T08:16:05;10.80;;;6.70;;
52031;SDS011;38044;45.148;39.604;2023-02-01T08:18:34;8.55;;;6.18;;
52031;SDS011;38044;45.148;39.604;2023-02-01T08:21:05;8.30;;;5.90;;
52031;SDS011;38044;45.148;39.604;2023-02-01T08:23:36;7.95;;;5.55;;
52031;SDS011;38044;45.148;39.604;2023-02-01T08:26:13;7.88;;;5.45;;
52031;SDS011;38044;45.148;39.604;2023-02-01T08:28:44;9.57;;;5.88;;
52031;SDS011;38044;45.148;39.604;2023-02-01T08:31:13;8.85;;;6.05;;
52031;SDS011;38044;45.148;39.604;2023-02-01T08:33:41;9.85;;;6.18;;
52031;SDS011;38044;45.148;39.604;2023-02-01T08:36:08;9.55;;;7.22;;
52031;SDS011;38044;45.148;39.604;2023-02-01T08:38:36;9.98;;;6.60;;
52031;SDS011;38044;45.148;39.604;2023-02-01T08:41:10;10.30;;;6.78;;
52031;SDS011;38044;45.148;39.604;2023-02-01T08:43:38;8.90;;;6.55;;
52031;SDS011;38044;45.148;39.604;2023-02-01T08:46:05;11.48;;;7.20;;
52031;SDS011;38044;45.148;39.604;2023-02-01T08:48:31;13.55;;;8.55;;
52031;SDS011;38044;45.148;39.604;2023-02-01T08:51:00;13.95;;;7.78;;
52031;SDS011;38044;45.148;39.604;2023-02-01T08:53:30;11.05;;;7.00;;
52031;SDS011;38044;45.148;39.604;2023-02-01T08:55:56;11.95;;;7.80;;
52031;SDS011;38044;45.148;39.604;2023-02-01T08:58:22;10.23;;;7.15;;
52031;SDS011;38044;45.148;39.604;2023-02-01T09:00:48;11.07;;;7.35;;
52031;SDS011;38044;45.148;39.604;2023-02-01T09:03:14;10.85;;;6.88;;
52031;SDS011;38044;45.148;39.604;2023-02-01T09:05:41;10.27;;;6.90;;
52031;SDS011;38044;45.148;39.604;2023-02-01T09:08:06;10.95;;;8.15;;
52031;SDS011;38044;45.148;39.604;2023-02-01T09:10:32;10.80;;;7.50;;
52031;SDS011;38044;45.148;39.604;2023-02-01T09:12:59;10.85;;;7.82;;
52031;SDS011;38044;45.148;39.604;2023-02-01T09:15:25;10.48;;;7.63;;
52031;SDS011;38044;45.148;39.604;2023-02-01T09:17:51;11.35;;;7.95;;
52031;SDS011;38044;45.148;39.604;2023-02-01T09:20:17;10.77;;;7.93;;
52031;SDS011;38044;45.148;39.604;2023-02-01T09:22:45;9.95;;;7.55;;
52031;SDS011;38044;45.148;39.604;2023-02-01T09:25:10;9.85;;;7.55;;
52031;SDS011;38044;45.148;39.604;2023-02-01T09:27:36;13.25;;;8.70;;
52031;SDS011;38044;45.148;39.604;2023-02-01T09:30:03;10.60;;;8.15;;
52031;SDS011;38044;45.148;39.604;2023-02-01T09:32:29;11.95;;;8.13;;
52031;SDS011;38044;45.148;39.604;2023-02-01T09:34:55;13.38;;;7.65;;
52031;SDS011;38044;45.148;39.604;2023-02-01T09:37:21;9.82;;;7.20;;
52031;SDS011;38044;45.148;39.604;2023-02-01T09:39:47;11.60;;;8.13;;
52031;SDS011;38044;45.148;39.604;2023-02-01T09:42:19;9.77;;;8.02;;
52031;SDS011;38044;45.148;39.604;2023-02-01T09:47:54;9.30;;;7.20;;
52031;SDS011;38044;45.148;39.604;2023-02-01T09:50:27;11.27;;;7.10;;
52031;SDS011;38044;45.148;39.604;2023-02-01T09:53:04;11.70;;;8.77;;
52031;SDS011;38044;45.148;39.604;2023-02-01T09:55:34;9.30;;;6.50;;
52031;SDS011;38044;45.148;39.604;2023-02-01T09:58:13;10.50;;;8.00;;
52031;SDS011;38044;45.148;39.604;2023-02-01T10:00:54;9.88;;;6.93;;
52031;SDS011;38044;45.148;39.604;2023-02-01T10:03:30;10.80;;;7.50;;
52031;SDS011;38044;45.148;39.604;2023-02-01T10:06:21;10.90;;;8.02;;
52031;SDS011;38044;45.148;39.604;2023-02-01T10:09:16;9.05;;;7.15;;
52031;SDS011;38044;45.148;39.604;2023-02-01T10:28:52;18.52;;;7.70;;
52031;SDS011;38044;45.148;39.604;2023-02-01T10:31:26;12.98;;;7.95;;
52031;SDS011;38044;45.148;39.604;2023-02-01T10:33:56;10.50;;;7.38;;
52031;SDS011;38044;45.148;39.604;2023-02-01T10:36:42;12.00;;;8.00;;
52031;SDS011;38044;45.148;39.604;2023-02-01T10:39:32;11.55;;;7.88;;
52031;SDS011;38044;45.148;39.604;2023-02-01T10:41:57;13.23;;;7.68;;
52031;SDS011;38044;45.148;39.604;2023-02-01T10:44:27;11.73;;;7.70;;
52031;SDS011;38044;45.148;39.604;2023-02-01T10:46:57;10.18;;;7.50;;
52031;SDS011;38044;45.148;39.604;2023-02-01T10:49:32;11.90;;;7.63;;
52031;SDS011;38044;45.148;39.604;2023-02-01T10:54:33;11.77;;;7.60;;
52031;SDS011;38044;45.148;39.604;2023-02-01T10:57:03;11.30;;;7.82;;
52031;SDS011;38044;45.148;39.604;2023-02-01T10:59:36;12.23;;;8.07;;
52031;SDS011;38044;45.148;39.604;2023-02-01T11:05:05;12.55;;;7.43;;
52031;SDS011;38044;45.148;39.604;2023-02-01T11:07:37;12.52;;;7.45;;
52031;SDS011;38044;45.148;39.604;2023-02-01T11:10:34;10.55;;;7.13;;
52031;SDS011;38044;45.148;39.604;2023-02-01T11:13:04;13.52;;;7.43;;
52031;SDS011;38044;45.148;39.604;2023-02-01T11:15:30;10.10;;;7.13;;
52031;SDS011;38044;45.148;39.604;2023-02-01T11:17:56;10.57;;;6.68;;
52031;SDS011;38044;45.148;39.604;2023-02-01T11:20:41;10.25;;;7.00;;
52031;SDS011;38044;45.148;39.604;2023-02-01T11:23:13;9.85;;;6.70;;
52031;SDS011;38044;45.148;39.604;2023-02-01T11:25:48;15.63;;;8.02;;
52031;SDS011;38044;45.148;39.604;2023-02-01T11:28:18;8.98;;;6.63;;
52031;SDS011;38044;45.148;39.604;2023-02-01T11:30:48;10.95;;;7.40;;
52031;SDS011;38044;45.148;39.604;2023-02-01T11:33:18;10.20;;;6.63;;
52031;SDS011;38044;45.148;39.604;2023-02-01T11:35:47;10.00;;;6.95;;
52031;SDS011;38044;45.148;39.604;2023-02-01T11:38:51;12.73;;;7.45;;
52031;SDS011;38044;45.148;39.604;2023-02-01T11:41:12;10.90;;;7.13;;
52031;SDS011;38044;45.148;39.604;2023-02-01T11:43:55;11.02;;;6.90;;
52031;SDS011;38044;45.148;39.604;2023-02-01T11:46:24;10.00;;;6.57;;
52031;SDS011;38044;45.148;39.604;2023-02-01T11:48:55;10.23;;;7.13;;
52031;SDS011;38044;45.148;39.604;2023-02-01T11:51:42;11.57;;;6.57;;
52031;SDS011;38044;45.148;39.604;2023-02-01T11:54:55;10.45;;;7.03;;
52031;SDS011;38044;45.148;39.604;2023-02-01T12:20:01;10.85;;;7.10;;
52031;SDS011;38044;45.148;39.604;2023-02-01T12:22:32;10.27;;;6.97;;
52031;SDS011;38044;45.148;39.604;2023-02-01T12:25:19;11.73;;;6.93;;
52031;SDS011;38044;45.148;39.604;2023-02-01T12:27:53;13.27;;;6.88;;
52031;SDS011;38044;45.148;39.604;2023-02-01T12:30:27;10.57;;;6.67;;
52031;SDS011;38044;45.148;39.604;2023-02-01T12:33:17;12.43;;;8.13;;
52031;SDS011;38044;45.148;39.604;2023-02-01T12:36:08;13.23;;;9.02;;
52031;SDS011;38044;45.148;39.604;2023-02-01T12:39:02;10.30;;;6.97;;
52031;SDS011;38044;45.148;39.604;2023-02-01T12:44:14;11.18;;;6.78;;
52031;SDS011;38044;45.148;39.604;2023-02-01T12:46:43;14.85;;;9.52;;
52031;SDS011;38044;45.148;39.604;2023-02-01T12:49:36;13.80;;;10.10;;
52031;SDS011;38044;45.148;39.604;2023-02-01T12:52:10;15.25;;;9.48;;
52031;SDS011;38044;45.148;39.604;2023-02-01T12:55:05;15.63;;;9.75;;
52031;SDS011;38044;45.148;39.604;2023-02-01T12:57:59;14.60;;;8.95;;
52031;SDS011;38044;45.148;39.604;2023-02-01T13:00:39;13.45;;;9.68;;
52031;SDS011;38044;45.148;39.604;2023-02-01T13:03:15;22.55;;;12.82;;
52031;SDS011;38044;45.148;39.604;2023-02-01T13:09:00;16.27;;;9.98;;
52031;SDS011;38044;45.148;39.604;2023-02-01T13:11:34;14.35;;;9.27;;
52031;SDS011;38044;45.148;39.604;2023-02-01T13:14:25;13.88;;;9.40;;
52031;SDS011;38044;45.148;39.604;2023-02-01T13:17:01;25.90;;;15.20;;
52031;SDS011;38044;45.148;39.604;2023-02-01T13:19:35;29.05;;;18.25;;
52031;SDS011;38044;45.148;39.604;2023-02-01T13:22:21;23.70;;;15.63;;
52031;SDS011;38044;45.148;39.604;2023-02-01T13:24:56;18.85;;;12.77;;
52031;SDS011;38044;45.148;39.604;2023-02-01T13:27:29;15.50;;;10.18;;
52031;SDS011;38044;45.148;39.604;2023-02-01T13:30:10;14.27;;;8.90;;
52031;SDS011;38044;45.148;39.604;2023-02-01T13:32:46;12.70;;;8.73;;
52031;SDS011;38044;45.148;39.604;2023-02-01T13:43:47;24.58;;;13.55;;
52031;SDS011;38044;45.148;39.604;2023-02-01T13:46:16;19.40;;;12.40;;
52031;SDS011;38044;45.148;39.604;2023-02-01T13:48:53;16.33;;;9.05;;
52031;SDS011;38044;45.148;39.604;2023-02-01T13:51:40;16.52;;;11.90;;
52031;SDS011;38044;45.148;39.604;2023-02-01T13:54:31;15.38;;;9.32;;
52031;SDS011;38044;45.148;39.604;2023-02-01T13:56:59;17.15;;;10.48;;
52031;SDS011;38044;45.148;39.604;2023-02-01T14:05:10;15.20;;;9.45;;
52031;SDS011;38044;45.148;39.604;2023-02-01T14:10:52;15.88;;;9.82;;
52031;SDS011;38044;45.148;39.604;2023-02-01T14:23:44;14.95;;;9.63;;
52031;SDS011;38044;45.148;39.604;2023-02-01T14:26:14;14.82;;;9.20;;
52031;SDS011;38044;45.148;39.604;2023-02-01T14:28:44;20.83;;;9.95;;
52031;SDS011;38044;45.148;39.604;2023-02-01T14:31:17;15.82;;;9.38;;
52031;SDS011;38044;45.148;39.604;2023-02-01T14:34:11;18.27;;;9.73;;
52031;SDS011;38044;45.148;39.604;2023-02-01T14:36:56;18.42;;;9.38;;
52031;SDS011;38044;45.148;39.604;2023-02-01T14:44:52;12.68;;;8.02;;
52031;SDS011;38044;45.148;39.604;2023-02-01T14:49:55;12.18;;;7.43;;
52031;SDS011;38044;45.148;39.604;2023-02-01T14:52:36;13.80;;;8.27;;
52031;SDS011;38044;45.148;39.604;2023-02-01T14:56:09;12.18;;;8.38;;
52031;SDS011;38044;45.148;39.604;2023-02-01T15:01:24;12.50;;;8.23;;
52031;SDS011;38044;45.148;39.604;2023-02-01T15:09:36;18.38;;;9.23;;
52031;SDS011;38044;45.148;39.604;2023-02-01T15:14:39;15.38;;;9.98;;
52031;SDS011;38044;45.148;39.604;2023-02-01T15:17:24;17.00;;;9.55;;
52031;SDS011;38044;45.148;39.604;2023-02-01T15:20:03;14.65;;;9.60;;
52031;SDS011;38044;45.148;39.604;2023-02-01T15:22:37;13.63;;;8.80;;
52031;SDS011;38044;45.148;39.604;2023-02-01T15:25:03;13.32;;;8.75;;
52031;SDS011;38044;45.148;39.604;2023-02-01T15:27:32;16.88;;;9.63;;
52031;SDS011;38044;45.148;39.604;2023-02-01T15:30:08;13.75;;;8.45;;
52031;SDS011;38044;45.148;39.604;2023-02-01T15:32:45;14.30;;;8.98;;
52031;SDS011;38044;45.148;39.604;2023-02-01T15:43:22;15.80;;;9.00;;
52031;SDS011;38044;45.148;39.604;2023-02-01T15:45:48;15.57;;;9.38;;
52031;SDS011;38044;45.148;39.604;2023-02-01T15:48:20;23.70;;;9.63;;
52031;SDS011;38044;45.148;39.604;2023-02-01T15:50:51;18.83;;;9.70;;
52031;SDS011;38044;45.148;39.604;2023-02-01T15:53:21;15.43;;;8.93;;
52031;SDS011;38044;45.148;39.604;2023-02-01T15:55:54;14.07;;;8.57;;
52031;SDS011;38044;45.148;39.604;2023-02-01T15:58:22;14.75;;;8.95;;
52031;SDS011;38044;45.148;39.604;2023-02-01T16:06:07;19.27;;;11.95;;
52031;SDS011;38044;45.148;39.604;2023-02-01T16:08:35;21.77;;;12.43;;
52031;SDS011;38044;45.148;39.604;2023-02-01T16:13:34;15.18;;;8.68;;
52031;SDS011;38044;45.148;39.604;2023-02-01T16:16:00;15.60;;;9.40;;
52031;SDS011;38044;45.148;39.604;2023-02-01T16:18:26;16.65;;;9.10;;
52031;SDS011;38044;45.148;39.604;2023-02-01T16:20:52;16.45;;;9.23;;
52031;SDS011;38044;45.148;39.604;2023-02-01T16:23:18;14.43;;;8.93;;
52031;SDS011;38044;45.148;39.604;2023-02-01T16:25:45;13.07;;;8.35;;
52031;SDS011;38044;45.148;39.604;2023-02-01T16:28:11;15.32;;;8.90;;
52031;SDS011;38044;45.148;39.604;2023-02-01T16:30:37;14.88;;;9.07;;
52031;SDS011;38044;45.148;39.604;2023-02-01T16:33:03;13.73;;;8.57;;
52031;SDS011;38044;45.148;39.604;2023-02-01T16:35:32;14.23;;;9.25;;
52031;SDS011;38044;45.148;39.604;2023-02-01T16:38:12;15.68;;;9.77;;
52031;SDS011;38044;45.148;39.604;2023-02-01T16:40:39;13.77;;;8.52;;
52031;SDS011;38044;45.148;39.604;2023-02-01T16:43:19;16.85;;;9.20;;
52031;SDS011;38044;45.148;39.604;2023-02-01T16:45:47;15.10;;;9.13;;
52031;SDS011;38044;45.148;39.604;2023-02-01T16:48:19;14.60;;;8.95;;
52031;SDS011;38044;45.148;39.604;2023-02-01T16:50:49;15.40;;;10.07;;
52031;SDS011;38044;45.148;39.604;2023-02-01T16:53:18;14.00;;;9.30;;
52031;SDS011;38044;45.148;39.604;2023-02-01T16:55:44;16.33;;;9.60;;
52031;SDS011;38044;45.148;39.604;2023-02-01T16:58:12;16.10;;;9.77;;
52031;SDS011;38044;45.148;39.604;2023-02-01T17:00:39;15.35;;;9.75;;
52031;SDS011;38044;45.148;39.604;2023-02-01T17:03:04;16.70;;;9.95;;
52031;SDS011;38044;45.148;39.604;2023-02-01T17:05:33;15.15;;;9.98;;
52031;SDS011;38044;45.148;39.604;2023-02-01T17:08:01;14.98;;;9.80;;
52031;SDS011;38044;45.148;39.604;2023-02-01T17:10:29;17.92;;;10.32;;
52031;SDS011;38044;45.148;39.604;2023-02-01T17:12:55;17.13;;;10.73;;
52031;SDS011;38044;45.148;39.604;2023-02-01T17:15:23;16.85;;;10.18;;
52031;SDS011;38044;45.148;39.604;2023-02-01T17:17:51;21.88;;;13.13;;
52031;SDS011;38044;45.148;39.604;2023-02-01T17:20:21;20.70;;;12.80;;